Time;durP1;ratioP1;P1;durP2;ratioP2;P2;SDS_P1;SDS_P2;PMS_P1;PMS_P2;Temp;Humidity;BMP_temperature;BMP_pressure;BME280_temperature;BME280_humidity;BME280_pressure;Samples;Min_cycle;Max_cycle;Signal;HPM_P1;HPM_P2
2023/12/12 06:00:45;;;;;;;3.93;2.00;;;;;;;;;;1741760;28;20179;-77
2023/12/12 06:01:38;;;;;;;3.03;1.98;;;;;;;;;;1741548;28;20203;-76
2023/12/12 06:02:30;;;;;;;4.72;2.22;;;;;;;;;;1741454;28;20234;-77
2023/12/12 06:03:23;;;;;;;3.40;1.95;;;;;;;;;;1741915;28;20195;-78
2023/12/12 06:04:14;;;;;;;6.65;2.00;;;;;;;;;;1741812;28;20337;-78
2023/12/12 06:05:07;;;;;;;3.55;2.00;;;;;;;;;;1741728;28;20206;-77
2023/12/12 06:05:59;;;;;;;3.65;2.35;;;;;;;;;;1741732;28;20203;-77
2023/12/12 06:06:50;;;;;;;5.45;2.00;;;;;;;;;;1741140;28;20573;-77
2023/12/12 06:07:42;;;;;;;8.43;2.17;;;;;;;;;;1741719;28;20199;-77
2023/12/12 06:08:34;;;;;;;6.25;3.05;;;;;;;;;;1741795;28;20253;-78
2023/12/12 06:09:25;;;;;;;4.00;2.17;;;;;;;;;;1741623;28;20203;-77
2023/12/12 06:10:18;;;;;;;3.10;2.08;;;;;;;;;;1741842;28;20245;-77
2023/12/12 06:11:11;;;;;;;4.82;2.63;;;;;;;;;;1741705;28;20195;-77
2023/12/12 06:12:02;;;;;;;3.53;2.67;;;;;;;;;;1741524;28;20207;-77
2023/12/12 06:12:54;;;;;;;5.95;3.08;;;;;;;;;;1741735;28;20737;-77
2023/12/12 06:13:45;;;;;;;5.75;3.30;;;;;;;;;;1741576;28;20263;-77
2023/12/12 06:14:37;;;;;;;5.10;2.95;;;;;;;;;;1741684;28;20195;-78
2023/12/12 06:15:29;;;;;;;3.72;3.08;;;;;;;;;;1742509;28;20283;-77
2023/12/12 06:16:21;;;;;;;4.57;3.15;;;;;;;;;;1741618;28;20656;-78
2023/12/12 06:17:12;;;;;;;7.47;3.45;;;;;;;;;;1741404;28;20207;-78
2023/12/12 06:18:04;;;;;;;4.80;3.70;;;;;;;;;;1741736;28;20202;-78
2023/12/12 06:18:55;;;;;;;5.93;3.95;;;;;;;;;;1741785;28;20222;-77
2023/12/12 06:19:46;;;;;;;6.32;3.97;;;;;;;;;;1741663;28;20199;-78
2023/12/12 06:20:38;;;;;;;7.85;4.60;;;;;;;;;;1741551;28;20225;-80
2023/12/12 06:21:30;;;;;;;6.30;4.95;;;;;;;;;;1742546;28;20214;-81
2023/12/12 06:22:21;;;;;;;5.05;3.35;;;;;;;;;;1741656;28;20198;-80
2023/12/12 06:23:13;;;;;;;5.47;4.55;;;;;;;;;;1741553;28;20227;-81
2023/12/12 06:24:04;;;;;;;5.75;3.80;;;;;;;;;;1741817;28;20690;-81
2023/12/12 06:24:56;;;;;;;6.00;4.18;;;;;;;;;;1743303;28;20993;-81
2023/12/12 06:25:48;;;;;;;4.57;4.05;;;;;;;;;;1748468;28;20567;-81
2023/12/12 06:26:39;;;;;;;6.75;3.75;;;;;;;;;;1747477;28;20206;-81
2023/12/12 06:27:31;;;;;;;6.50;4.35;;;;;;;;;;1741401;28;20203;-81
2023/12/12 06:28:22;;;;;;;4.28;3.70;;;;;;;;;;1741460;28;20214;-81
2023/12/12 06:29:13;;;;;;;4.63;4.22;;;;;;;;;;1741529;28;20214;-81
2023/12/12 06:30:06;;;;;;;4.97;4.50;;;;;;;;;;1741894;28;20261;-80
2023/12/12 06:30:57;;;;;;;5.80;5.10;;;;;;;;;;1741615;28;20219;-77
2023/12/12 06:31:51;;;;;;;5.07;4.57;;;;;;;;;;1741446;28;20227;-76
2023/12/12 06:32:42;;;;;;;5.20;4.70;;;;;;;;;;1741118;28;20211;-76
2023/12/12 06:33:33;;;;;;;5.55;5.05;;;;;;;;;;1741264;28;20195;-76
2023/12/12 06:34:25;;;;;;;5.25;4.13;;;;;;;;;;1741092;28;20199;-75
2023/12/12 06:35:16;;;;;;;4.80;4.20;;;;;;;;;;1743938;28;20198;-76
2023/12/12 06:36:09;;;;;;;8.57;4.80;;;;;;;;;;1747481;28;20279;-75
2023/12/12 06:37:00;;;;;;;5.88;4.55;;;;;;;;;;1740744;28;20614;-74
2023/12/12 06:37:52;;;;;;;6.43;4.22;;;;;;;;;;1744847;28;20218;-74
2023/12/12 06:38:43;;;;;;;4.70;4.18;;;;;;;;;;1739901;28;20603;-74
2023/12/12 06:39:34;;;;;;;8.90;5.00;;;;;;;;;;1741079;28;20203;-74
2023/12/12 06:40:27;;;;;;;5.88;4.18;;;;;;;;;;1741042;28;20249;-74
2023/12/12 06:41:18;;;;;;;5.45;4.72;;;;;;;;;;1741064;28;20203;-74
2023/12/12 06:42:09;;;;;;;7.72;5.35;;;;;;;;;;1743604;28;20273;-74
2023/12/12 06:43:01;;;;;;;9.05;6.35;;;;;;;;;;1748034;28;20211;-75
2023/12/12 06:43:52;;;;;;;5.57;4.93;;;;;;;;;;1743101;28;20206;-75
2023/12/12 06:44:43;;;;;;;4.63;3.53;;;;;;;;;;1741003;28;20207;-74
2023/12/12 06:45:37;;;;;;;4.70;4.28;;;;;;;;;;1741105;28;20277;-75
2023/12/12 06:46:28;;;;;;;8.18;3.45;;;;;;;;;;1734313;28;20668;-75
2023/12/12 06:47:21;;;;;;;5.85;3.67;;;;;;;;;;1733797;28;20231;-74
2023/12/12 06:48:13;;;;;;;4.05;3.28;;;;;;;;;;1740087;28;20659;-74
2023/12/12 06:49:06;;;;;;;4.43;3.15;;;;;;;;;;1740986;28;20227;-75
2023/12/12 06:49:58;;;;;;;5.90;2.65;;;;;;;;;;1741017;28;20624;-75
2023/12/12 06:50:49;;;;;;;4.50;2.80;;;;;;;;;;1741009;28;20199;-75
2023/12/12 06:51:41;;;;;;;3.90;3.10;;;;;;;;;;1740983;28;20203;-74
2023/12/12 06:52:32;;;;;;;3.30;2.60;;;;;;;;;;1741009;28;20206;-74
2023/12/12 06:53:23;;;;;;;3.80;2.88;;;;;;;;;;1740923;28;20286;-74
2023/12/12 06:54:16;;;;;;;5.28;2.63;;;;;;;;;;1741087;28;20199;-74
2023/12/12 06:55:08;;;;;;;3.13;2.42;;;;;;;;;;1740996;28;20744;-74
2023/12/12 06:55:59;;;;;;;4.15;2.60;;;;;;;;;;1740415;28;20191;-75
2023/12/12 06:56:51;;;;;;;4.20;2.40;;;;;;;;;;1740067;28;20202;-74
2023/12/12 06:57:42;;;;;;;3.80;2.70;;;;;;;;;;1740787;28;20203;-75
2023/12/12 06:58:33;;;;;;;4.07;2.70;;;;;;;;;;1740906;28;20195;-75
2023/12/12 06:59:25;;;;;;;4.65;3.15;;;;;;;;;;1740990;28;20689;-75
2023/12/12 07:00:17;;;;;;;4.50;2.47;;;;;;;;;;1741036;28;20592;-74
2023/12/12 07:01:08;;;;;;;5.95;2.75;;;;;;;;;;1740903;28;20618;-75
2023/12/12 07:02:00;;;;;;;4.95;2.70;;;;;;;;;;1741037;28;20290;-75
2023/12/12 07:02:53;;;;;;;7.18;2.97;;;;;;;;;;1741097;28;20217;-75
2023/12/12 07:03:45;;;;;;;5.90;2.45;;;;;;;;;;1740933;28;20210;-75
2023/12/12 07:04:36;;;;;;;4.00;2.83;;;;;;;;;;1741011;28;20207;-74
2023/12/12 07:05:28;;;;;;;5.43;3.20;;;;;;;;;;1740973;28;20573;-74
2023/12/12 07:06:19;;;;;;;10.18;3.42;;;;;;;;;;1741004;28;20252;-75
2023/12/12 07:07:11;;;;;;;3.97;2.70;;;;;;;;;;1740570;28;20217;-74
2023/12/12 07:08:03;;;;;;;4.60;3.05;;;;;;;;;;1740978;28;20207;-74
2023/12/12 07:08:54;;;;;;;5.28;2.85;;;;;;;;;;1740854;28;20234;-74
2023/12/12 07:09:46;;;;;;;3.58;2.70;;;;;;;;;;1741050;28;20199;-75
2023/12/12 07:10:37;;;;;;;4.40;2.78;;;;;;;;;;1740939;28;20211;-74
2023/12/12 07:11:29;;;;;;;4.35;2.80;;;;;;;;;;1741018;28;20223;-74
2023/12/12 07:12:20;;;;;;;5.05;2.60;;;;;;;;;;1740946;28;20203;-73
2023/12/12 07:13:11;;;;;;;5.53;2.30;;;;;;;;;;1741060;28;20274;-74
2023/12/12 07:14:03;;;;;;;6.70;2.45;;;;;;;;;;1741002;28;20244;-74
2023/12/12 07:14:55;;;;;;;4.72;2.55;;;;;;;;;;1740990;28;20210;-74
2023/12/12 07:15:46;;;;;;;2.90;2.15;;;;;;;;;;1740869;28;20252;-74
2023/12/12 07:16:38;;;;;;;4.85;2.55;;;;;;;;;;1740938;28;20211;-74
2023/12/12 07:17:29;;;;;;;6.13;2.60;;;;;;;;;;1740629;28;20219;-74
2023/12/12 07:18:23;;;;;;;4.90;2.53;;;;;;;;;;1740967;28;20203;-74
2023/12/12 07:19:14;;;;;;;3.50;2.35;;;;;;;;;;1740980;28;20207;-74
2023/12/12 07:20:05;;;;;;;4.70;2.50;;;;;;;;;;1740876;28;20257;-74
2023/12/12 07:20:59;;;;;;;5.78;2.70;;;;;;;;;;1740942;28;20199;-74
2023/12/12 07:21:50;;;;;;;6.05;2.65;;;;;;;;;;1740863;28;20590;-74
2023/12/12 07:22:43;;;;;;;4.18;2.80;;;;;;;;;;1740913;28;20202;-74
2023/12/12 07:23:34;;;;;;;5.00;2.05;;;;;;;;;;1740965;28;20238;-74
2023/12/12 07:24:25;;;;;;;4.28;2.70;;;;;;;;;;1740905;28;20203;-73
2023/12/12 07:25:20;;;;;;;5.28;2.75;;;;;;;;;;1741143;28;20801;-74
2023/12/12 07:26:12;;;;;;;4.50;2.45;;;;;;;;;;1740671;28;20207;-75
2023/12/12 07:27:04;;;;;;;6.53;2.60;;;;;;;;;;1740393;28;20252;-75
2023/12/12 07:27:57;;;;;;;3.17;2.30;;;;;;;;;;1740874;28;20207;-73
2023/12/12 07:28:48;;;;;;;4.63;2.78;;;;;;;;;;1740840;28;20223;-75
2023/12/12 07:29:39;;;;;;;2.58;2.38;;;;;;;;;;1740664;28;20283;-75
2023/12/12 07:30:32;;;;;;;4.10;2.75;;;;;;;;;;1740811;28;20264;-74
2023/12/12 07:31:23;;;;;;;4.55;2.70;;;;;;;;;;1740792;28;20202;-75
2023/12/12 07:32:14;;;;;;;4.57;2.80;;;;;;;;;;1745951;28;20198;-77
2023/12/12 07:33:06;;;;;;;4.90;2.63;;;;;;;;;;1748296;28;20277;-78
2023/12/12 07:33:58;;;;;;;5.43;3.03;;;;;;;;;;1741829;28;20207;-77
2023/12/12 07:34:50;;;;;;;4.60;2.78;;;;;;;;;;1741030;28;20211;-77
2023/12/12 07:35:41;;;;;;;3.85;2.50;;;;;;;;;;1740923;28;20207;-77
2023/12/12 07:36:33;;;;;;;5.03;2.85;;;;;;;;;;1740483;28;20203;-78
2023/12/12 07:37:25;;;;;;;4.15;2.40;;;;;;;;;;1740151;28;20227;-77
2023/12/12 07:38:16;;;;;;;5.78;2.47;;;;;;;;;;1741112;28;20203;-77
2023/12/12 07:39:09;;;;;;;3.25;2.13;;;;;;;;;;1740849;28;20257;-78
2023/12/12 07:40:02;;;;;;;4.15;2.33;;;;;;;;;;1741130;28;20210;-77
2023/12/12 07:40:53;;;;;;;3.75;2.58;;;;;;;;;;1741011;28;20294;-77
2023/12/12 07:41:45;;;;;;;3.70;2.20;;;;;;;;;;1740962;28;20532;-78
2023/12/12 07:42:36;;;;;;;3.55;2.40;;;;;;;;;;1738101;28;20199;-78
2023/12/12 07:43:29;;;;;;;3.80;2.03;;;;;;;;;;1740957;28;20669;-77
2023/12/12 07:44:21;;;;;;;7.47;2.25;;;;;;;;;;1739449;28;20203;-78
2023/12/12 07:45:12;;;;;;;4.97;2.20;;;;;;;;;;1742194;28;20210;-77
2023/12/12 07:46:05;;;;;;;3.88;2.72;;;;;;;;;;1740410;28;20195;-77
2023/12/12 07:46:59;;;;;;;4.75;2.15;;;;;;;;;;1739025;28;20233;-77
2023/12/12 07:47:51;;;;;;;3.25;2.50;;;;;;;;;;1742775;28;20203;-77
2023/12/12 07:48:43;;;;;;;3.67;2.33;;;;;;;;;;1743656;28;20745;-78
2023/12/12 07:49:35;;;;;;;5.07;2.67;;;;;;;;;;1741926;28;20199;-77
2023/12/12 07:50:27;;;;;;;5.30;2.65;;;;;;;;;;1740388;28;20225;-76
2023/12/12 07:51:18;;;;;;;4.55;2.60;;;;;;;;;;1737916;28;20199;-76
2023/12/12 07:52:09;;;;;;;3.75;2.20;;;;;;;;;;1739136;28;20338;-78
2023/12/12 07:53:01;;;;;;;7.95;2.35;;;;;;;;;;1741069;28;20311;-77
2023/12/12 07:53:55;;;;;;;4.25;2.28;;;;;;;;;;1741685;28;20583;-78
2023/12/12 07:54:46;;;;;;;3.63;2.40;;;;;;;;;;1744724;28;20195;-76
2023/12/12 07:55:38;;;;;;;4.20;2.38;;;;;;;;;;1749041;28;20209;-77
2023/12/12 07:56:29;;;;;;;3.38;2.50;;;;;;;;;;1746340;28;20203;-77
2023/12/12 07:57:21;;;;;;;3.83;2.45;;;;;;;;;;1742476;28;20821;-76
2023/12/12 07:58:12;;;;;;;3.28;2.05;;;;;;;;;;1743028;28;20233;-76
2023/12/12 07:59:04;;;;;;;7.18;2.35;;;;;;;;;;1744414;28;20272;-78
2023/12/12 07:59:55;;;;;;;2.45;2.10;;;;;;;;;;1750086;28;20833;-77
2023/12/12 08:00:47;;;;;;;3.55;1.88;;;;;;;;;;1750129;28;20187;-77
2023/12/12 08:01:39;;;;;;;5.43;2.60;;;;;;;;;;1748799;28;20201;-77
2023/12/12 08:02:30;;;;;;;6.18;2.55;;;;;;;;;;1747517;28;20225;-76
2023/12/12 08:03:22;;;;;;;4.20;2.38;;;;;;;;;;1749383;28;20198;-76
2023/12/12 08:04:13;;;;;;;5.18;2.28;;;;;;;;;;1746788;28;20207;-77
2023/12/12 08:05:06;;;;;;;3.92;2.20;;;;;;;;;;1742317;28;20199;-76
2023/12/12 08:06:00;;;;;;;4.93;2.25;;;;;;;;;;1739078;28;20655;-77
2023/12/12 08:06:51;;;;;;;6.50;3.10;;;;;;;;;;1742004;28;20214;-77
2023/12/12 08:07:42;;;;;;;4.20;2.50;;;;;;;;;;1742801;28;20191;-76
2023/12/12 08:08:34;;;;;;;3.13;2.67;;;;;;;;;;1742748;28;20195;-78
2023/12/12 08:09:25;;;;;;;4.60;2.58;;;;;;;;;;1746767;28;20202;-77
2023/12/12 08:10:18;;;;;;;3.03;2.38;;;;;;;;;;1742967;28;20225;-77
2023/12/12 08:11:12;;;;;;;6.40;2.47;;;;;;;;;;1744269;28;20260;-77
2023/12/12 08:12:04;;;;;;;4.03;2.72;;;;;;;;;;1744376;28;20253;-77
2023/12/12 08:12:56;;;;;;;2.92;2.00;;;;;;;;;;1749770;28;20210;-77
2023/12/12 08:13:47;;;;;;;3.25;2.50;;;;;;;;;;1745383;28;20207;-77
2023/12/12 08:14:39;;;;;;;7.20;2.40;;;;;;;;;;1748336;28;20199;-77
2023/12/12 08:15:30;;;;;;;3.58;2.47;;;;;;;;;;1746566;28;20199;-78
2023/12/12 08:16:21;;;;;;;6.28;2.58;;;;;;;;;;1746636;28;20194;-76
2023/12/12 08:17:13;;;;;;;6.80;3.25;;;;;;;;;;1742210;28;20746;-76
2023/12/12 08:18:05;;;;;;;3.97;2.45;;;;;;;;;;1739397;28;20215;-76
2023/12/12 08:18:56;;;;;;;4.38;2.83;;;;;;;;;;1739468;28;20219;-77
2023/12/12 08:19:48;;;;;;;4.05;3.05;;;;;;;;;;1739660;28;20278;-77
2023/12/12 08:20:40;;;;;;;7.00;3.05;;;;;;;;;;1742547;28;20202;-77
2023/12/12 08:21:31;;;;;;;4.05;2.67;;;;;;;;;;1740373;28;20557;-77
2023/12/12 08:22:23;;;;;;;5.85;3.25;;;;;;;;;;1741438;28;20260;-76
2023/12/12 08:23:15;;;;;;;6.20;3.10;;;;;;;;;;1740524;28;20211;-76
2023/12/12 08:24:07;;;;;;;4.13;2.90;;;;;;;;;;1739137;28;20195;-77
2023/12/12 08:24:58;;;;;;;3.95;3.30;;;;;;;;;;1742676;28;20199;-76
2023/12/12 08:25:50;;;;;;;3.65;3.10;;;;;;;;;;1739628;28;20198;-76
2023/12/12 08:26:41;;;;;;;3.67;3.25;;;;;;;;;;1740689;28;20691;-76
2023/12/12 08:27:33;;;;;;;3.72;3.10;;;;;;;;;;1741798;28;20250;-76
2023/12/12 08:28:26;;;;;;;6.65;3.47;;;;;;;;;;1740112;28;20195;-77
2023/12/12 08:29:17;;;;;;;5.18;3.20;;;;;;;;;;1742338;28;20203;-76
2023/12/12 08:30:08;;;;;;;5.18;3.35;;;;;;;;;;1740385;28;20243;-80
2023/12/12 08:31:00;;;;;;;5.55;3.65;;;;;;;;;;1744133;28;20199;-79
2023/12/12 08:31:51;;;;;;;5.65;3.00;;;;;;;;;;1744752;28;20195;-79
2023/12/12 08:32:43;;;;;;;5.97;3.30;;;;;;;;;;1744965;28;20204;-80
2023/12/12 08:33:34;;;;;;;5.90;3.30;;;;;;;;;;1742889;28;20199;-79
2023/12/12 08:34:27;;;;;;;6.85;3.45;;;;;;;;;;1743610;28;20225;-79
2023/12/12 08:35:18;;;;;;;5.72;2.90;;;;;;;;;;1743151;28;20212;-79
2023/12/12 08:36:10;;;;;;;5.82;3.53;;;;;;;;;;1741838;28;20794;-80
2023/12/12 08:37:03;;;;;;;4.47;3.00;;;;;;;;;;1743533;28;20199;-78
2023/12/12 08:37:54;;;;;;;5.72;3.25;;;;;;;;;;1741399;28;20704;-79
2023/12/12 08:38:49;;;;;;;6.20;2.97;;;;;;;;;;1743637;28;20211;-80
2023/12/12 08:39:41;;;;;;;6.10;3.33;;;;;;;;;;1742577;28;20192;-80
2023/12/12 08:40:32;;;;;;;3.70;2.90;;;;;;;;;;1741301;28;20195;-80
2023/12/12 08:41:25;;;;;;;7.07;3.10;;;;;;;;;;1742091;28;20199;-80
2023/12/12 08:42:17;;;;;;;5.90;3.15;;;;;;;;;;1743091;28;20203;-79
2023/12/12 08:43:09;;;;;;;6.50;3.85;;;;;;;;;;1741424;28;20679;-79
2023/12/12 08:44:01;;;;;;;9.85;3.67;;;;;;;;;;1743593;28;20191;-80
2023/12/12 08:44:53;;;;;;;5.90;3.25;;;;;;;;;;1744225;28;20568;-80
2023/12/12 08:45:44;;;;;;;6.47;3.45;;;;;;;;;;1743604;28;20286;-79
2023/12/12 08:46:38;;;;;;;5.72;3.22;;;;;;;;;;1743448;28;20771;-80
2023/12/12 08:47:29;;;;;;;4.28;2.95;;;;;;;;;;1740291;28;20195;-79
2023/12/12 08:48:21;;;;;;;7.55;3.40;;;;;;;;;;1742752;28;20195;-79
2023/12/12 08:49:12;;;;;;;10.77;3.42;;;;;;;;;;1741066;28;20203;-80
2023/12/12 08:50:05;;;;;;;5.60;3.08;;;;;;;;;;1744277;28;20238;-79
2023/12/12 08:50:57;;;;;;;5.90;3.60;;;;;;;;;;1740415;28;20280;-79
2023/12/12 08:51:49;;;;;;;5.22;3.05;;;;;;;;;;1743191;28;20245;-79
2023/12/12 08:52:41;;;;;;;4.43;3.25;;;;;;;;;;1741386;28;20325;-79
2023/12/12 08:53:33;;;;;;;5.53;3.10;;;;;;;;;;1744305;28;20215;-79
2023/12/12 08:54:24;;;;;;;5.53;3.33;;;;;;;;;;1746065;28;20651;-79
2023/12/12 08:55:16;;;;;;;5.05;3.20;;;;;;;;;;1744281;28;20282;-79
2023/12/12 08:56:12;;;;;;;8.27;4.05;;;;;;;;;;1746477;28;20309;-79
2023/12/12 08:57:03;;;;;;;5.32;3.47;;;;;;;;;;1742749;28;20207;-78
2023/12/12 08:57:55;;;;;;;6.30;3.30;;;;;;;;;;1745364;28;20706;-78
2023/12/12 08:58:48;;;;;;;4.18;2.78;;;;;;;;;;1743081;28;20594;-79
2023/12/12 08:59:39;;;;;;;4.88;3.30;;;;;;;;;;1742797;28;20209;-79
2023/12/12 09:00:31;;;;;;;6.60;3.28;;;;;;;;;;1744778;28;20188;-80
2023/12/12 09:01:22;;;;;;;6.47;3.40;;;;;;;;;;1745023;28;21433;-79
2023/12/12 09:02:13;;;;;;;6.07;3.25;;;;;;;;;;1745924;28;20183;-79
2023/12/12 09:03:05;;;;;;;4.88;3.50;;;;;;;;;;1742391;28;20218;-79
2023/12/12 09:03:57;;;;;;;7.75;3.30;;;;;;;;;;1742879;28;20206;-79
2023/12/12 09:04:49;;;;;;;4.75;3.20;;;;;;;;;;1741697;28;20198;-79
2023/12/12 09:05:41;;;;;;;8.27;3.63;;;;;;;;;;1743019;28;20197;-80
2023/12/12 09:06:32;;;;;;;4.13;3.30;;;;;;;;;;1740336;28;20202;-78
2023/12/12 09:07:26;;;;;;;7.45;3.40;;;;;;;;;;1743593;28;20629;-78
2023/12/12 09:08:18;;;;;;;9.88;3.72;;;;;;;;;;1742873;28;20575;-78
2023/12/12 09:09:09;;;;;;;4.90;3.25;;;;;;;;;;1744676;28;20255;-79
2023/12/12 09:10:01;;;;;;;4.60;3.28;;;;;;;;;;1741491;28;20203;-79
2023/12/12 09:10:52;;;;;;;6.63;4.25;;;;;;;;;;1744563;28;20573;-79
2023/12/12 09:11:45;;;;;;;7.53;3.85;;;;;;;;;;1743534;28;20198;-78
2023/12/12 09:12:38;;;;;;;7.10;4.20;;;;;;;;;;1742307;28;20218;-79
2023/12/12 09:13:29;;;;;;;5.80;3.80;;;;;;;;;;1744035;28;20229;-78
2023/12/12 09:14:20;;;;;;;8.55;3.90;;;;;;;;;;1741275;28;20195;-78
2023/12/12 09:15:12;;;;;;;6.18;3.80;;;;;;;;;;1744621;28;20261;-78
2023/12/12 09:16:03;;;;;;;4.05;3.45;;;;;;;;;;1740277;28;20204;-78
2023/12/12 09:16:55;;;;;;;3.85;2.42;;;;;;;;;;1743938;28;20198;-78
2023/12/12 09:17:47;;;;;;;6.00;2.80;;;;;;;;;;1741575;28;20642;-79
2023/12/12 09:18:38;;;;;;;3.53;3.22;;;;;;;;;;1744255;28;20198;-78
2023/12/12 09:19:29;;;;;;;3.97;2.83;;;;;;;;;;1741745;28;20255;-79
2023/12/12 09:20:21;;;;;;;2.72;2.10;;;;;;;;;;1742779;28;20230;-79
2023/12/12 09:21:13;;;;;;;3.60;2.35;;;;;;;;;;1746383;28;20203;-78
2023/12/12 09:22:05;;;;;;;2.90;2.60;;;;;;;;;;1741043;28;20213;-78
2023/12/12 09:22:58;;;;;;;3.38;2.22;;;;;;;;;;1741997;28;20207;-78
2023/12/12 09:23:49;;;;;;;3.45;2.05;;;;;;;;;;1741559;28;20196;-79
2023/12/12 09:24:41;;;;;;;3.13;2.05;;;;;;;;;;1741787;28;20214;-78
2023/12/12 09:25:32;;;;;;;1.77;1.67;;;;;;;;;;1744537;28;20202;-78
2023/12/12 09:26:24;;;;;;;2.10;1.75;;;;;;;;;;1744339;28;20234;-79
2023/12/12 09:27:15;;;;;;;1.92;1.60;;;;;;;;;;1741489;28;20820;-78
2023/12/12 09:28:07;;;;;;;1.90;1.60;;;;;;;;;;1742506;28;20248;-79
2023/12/12 09:28:59;;;;;;;7.78;1.75;;;;;;;;;;1741131;28;20265;-78
2023/12/12 09:29:50;;;;;;;2.20;1.40;;;;;;;;;;1743658;28;20639;-79
2023/12/12 09:30:41;;;;;;;2.45;1.30;;;;;;;;;;1742499;28;20221;-78
2023/12/12 09:31:35;;;;;;;1.45;1.35;;;;;;;;;;1744321;28;20191;-78
2023/12/12 09:32:26;;;;;;;1.75;1.50;;;;;;;;;;1742984;28;20229;-78
2023/12/12 09:33:18;;;;;;;1.30;1.10;;;;;;;;;;1741617;28;20199;-78
2023/12/12 09:34:09;;;;;;;1.90;1.50;;;;;;;;;;1742645;28;20199;-77
2023/12/12 09:35:01;;;;;;;3.00;1.50;;;;;;;;;;1740594;28;20192;-77
2023/12/12 09:35:53;;;;;;;1.27;1.17;;;;;;;;;;1741809;28;20199;-79
2023/12/12 09:36:44;;;;;;;1.10;1.00;;;;;;;;;;1742916;28;20195;-80
2023/12/12 09:37:37;;;;;;;1.25;1.00;;;;;;;;;;1741886;28;20211;-77
2023/12/12 09:38:29;;;;;;;1.30;1.20;;;;;;;;;;1741798;28;20199;-78
2023/12/12 09:39:21;;;;;;;2.05;1.80;;;;;;;;;;1741718;28;20198;-79
2023/12/12 09:40:12;;;;;;;1.45;1.25;;;;;;;;;;1740882;28;20196;-78
2023/12/12 09:41:04;;;;;;;1.38;1.25;;;;;;;;;;1741109;28;20199;-78
2023/12/12 09:41:57;;;;;;;1.60;1.33;;;;;;;;;;1741400;28;20248;-78
2023/12/12 09:42:48;;;;;;;1.33;1.15;;;;;;;;;;1740846;28;20204;-77
2023/12/12 09:43:40;;;;;;;1.33;1.23;;;;;;;;;;1747499;28;20195;-79
2023/12/12 09:44:32;;;;;;;2.33;1.67;;;;;;;;;;1744068;28;20195;-77
2023/12/12 09:45:25;;;;;;;2.20;1.63;;;;;;;;;;1741599;28;20225;-78
2023/12/12 09:46:16;;;;;;;1.80;1.25;;;;;;;;;;1741825;28;20256;-76
2023/12/12 09:47:09;;;;;;;4.10;1.58;;;;;;;;;;1740430;28;20207;-78
2023/12/12 09:48:01;;;;;;;1.67;1.58;;;;;;;;;;1741403;28;20252;-78
2023/12/12 09:48:54;;;;;;;2.35;1.60;;;;;;;;;;1741228;28;20818;-77
2023/12/12 09:49:46;;;;;;;1.70;1.40;;;;;;;;;;1741452;28;20342;-77
2023/12/12 09:50:41;;;;;;;2.88;1.67;;;;;;;;;;1741351;28;20209;-77
2023/12/12 09:51:33;;;;;;;2.97;1.50;;;;;;;;;;1742351;28;20195;-78
2023/12/12 09:52:25;;;;;;;1.92;1.40;;;;;;;;;;1746327;28;20206;-78
2023/12/12 09:53:16;;;;;;;1.55;1.42;;;;;;;;;;1740644;28;20210;-75
2023/12/12 09:54:10;;;;;;;2.13;1.60;;;;;;;;;;1747197;28;20226;-76
2023/12/12 09:55:03;;;;;;;2.03;1.50;;;;;;;;;;1734541;28;20207;-76
2023/12/12 09:55:55;;;;;;;4.15;1.95;;;;;;;;;;1739859;28;20191;-76
2023/12/12 09:56:48;;;;;;;2.30;1.80;;;;;;;;;;1740268;28;20674;-74
2023/12/12 09:57:39;;;;;;;1.90;1.70;;;;;;;;;;1741337;28;20211;-76
2023/12/12 09:58:31;;;;;;;2.45;1.90;;;;;;;;;;1741249;28;20207;-76
2023/12/12 09:59:23;;;;;;;2.17;1.80;;;;;;;;;;1741332;28;20675;-75
2023/12/12 10:00:16;;;;;;;3.22;1.65;;;;;;;;;;1741417;28;20234;-76
2023/12/12 10:01:08;;;;;;;2.65;1.65;;;;;;;;;;1741317;28;20278;-75
2023/12/12 10:02:00;;;;;;;2.53;1.67;;;;;;;;;;1741349;28;20199;-76
2023/12/12 10:02:55;;;;;;;1.73;1.63;;;;;;;;;;1741321;28;20206;-76
2023/12/12 10:03:47;;;;;;;1.95;1.75;;;;;;;;;;1741263;28;20214;-76
2023/12/12 10:04:38;;;;;;;15.35;10.98;;;;;;;;;;1741289;28;20203;-76
2023/12/12 10:05:30;;;;;;;34.85;26.42;;;;;;;;;;1741267;28;20205;-75
2023/12/12 10:06:25;;;;;;;11.15;8.55;;;;;;;;;;1741229;28;20199;-75
2023/12/12 10:07:18;;;;;;;4.15;3.53;;;;;;;;;;1740623;28;20207;-75
2023/12/12 10:08:10;;;;;;;4.50;3.20;;;;;;;;;;1742818;28;20252;-76
2023/12/12 10:09:01;;;;;;;3.63;2.40;;;;;;;;;;1748053;28;20229;-75
2023/12/12 10:09:53;;;;;;;3.38;2.50;;;;;;;;;;1744423;28;20215;-75
2023/12/12 10:10:46;;;;;;;3.03;2.55;;;;;;;;;;1741347;28;20206;-75
2023/12/12 10:11:37;;;;;;;2.40;1.95;;;;;;;;;;1741268;28;20210;-75
2023/12/12 10:12:28;;;;;;;3.42;2.13;;;;;;;;;;1742204;28;20187;-76
2023/12/12 10:13:20;;;;;;;2.45;1.77;;;;;;;;;;1747531;28;20198;-76
2023/12/12 10:14:11;;;;;;;2.60;2.08;;;;;;;;;;1741122;28;20207;-76
2023/12/12 10:15:02;;;;;;;2.15;1.88;;;;;;;;;;1741253;28;20561;-76
2023/12/12 10:15:54;;;;;;;2.75;1.88;;;;;;;;;;1740997;28;20207;-76
2023/12/12 10:16:53;;;;;;;3.45;2.05;;;;;;;;;;1740822;28;20211;-76
2023/12/12 10:17:45;;;;;;;1.75;1.60;;;;;;;;;;1741306;28;20213;-75
2023/12/12 10:18:36;;;;;;;1.73;1.63;;;;;;;;;;1741236;28;20457;-75
2023/12/12 10:19:28;;;;;;;6.68;1.88;;;;;;;;;;1741090;28;20207;-76
2023/12/12 10:20:25;;;;;;;2.65;1.70;;;;;;;;;;1741551;28;20214;-75
2023/12/12 10:21:17;;;;;;;1.50;1.40;;;;;;;;;;1741227;28;20285;-76
2023/12/12 10:22:09;;;;;;;3.50;1.73;;;;;;;;;;1741210;28;20736;-75
2023/12/12 10:23:02;;;;;;;3.08;1.60;;;;;;;;;;1741236;28;20199;-75
2023/12/12 10:23:53;;;;;;;2.20;1.65;;;;;;;;;;1738242;28;20257;-75
2023/12/12 10:24:44;;;;;;;2.20;1.60;;;;;;;;;;1738302;28;20219;-75
2023/12/12 10:25:38;;;;;;;1.75;1.60;;;;;;;;;;1739647;28;20678;-76
2023/12/12 10:26:31;;;;;;;2.35;1.83;;;;;;;;;;1737496;28;20211;-76
2023/12/12 10:27:22;;;;;;;3.05;2.17;;;;;;;;;;1740581;28;20202;-75
2023/12/12 10:28:14;;;;;;;2.60;1.95;;;;;;;;;;1738365;28;20219;-75
2023/12/12 10:29:05;;;;;;;3.78;1.73;;;;;;;;;;1740449;28;20233;-76
2023/12/12 10:29:56;;;;;;;2.35;2.10;;;;;;;;;;1738323;28;20258;-76
2023/12/12 10:30:53;;;;;;;2.60;2.30;;;;;;;;;;1738111;28;20206;-76
2023/12/12 10:31:44;;;;;;;2.83;1.90;;;;;;;;;;1737057;28;20796;-75
2023/12/12 10:32:37;;;;;;;3.75;2.10;;;;;;;;;;1739241;28;20209;-75
2023/12/12 10:33:29;;;;;;;2.65;2.10;;;;;;;;;;1740380;28;20195;-76
2023/12/12 10:34:23;;;;;;;4.18;2.45;;;;;;;;;;1738254;28;20194;-76
2023/12/12 10:35:14;;;;;;;2.92;1.90;;;;;;;;;;1738307;28;20207;-75
2023/12/12 10:36:10;;;;;;;2.97;2.10;;;;;;;;;;1740427;28;20258;-76
2023/12/12 10:37:02;;;;;;;2.17;1.98;;;;;;;;;;1736585;28;20283;-77
2023/12/12 10:37:54;;;;;;;2.10;1.90;;;;;;;;;;1738194;28;20215;-76
2023/12/12 10:38:45;;;;;;;3.45;2.35;;;;;;;;;;1740956;28;20230;-77
2023/12/12 10:39:37;;;;;;;2.33;2.10;;;;;;;;;;1738044;28;20855;-75
2023/12/12 10:40:28;;;;;;;2.67;2.00;;;;;;;;;;1738779;28;20199;-75
2023/12/12 10:41:22;;;;;;;3.05;1.88;;;;;;;;;;1737649;28;20247;-76
2023/12/12 10:42:13;;;;;;;2.95;1.90;;;;;;;;;;1739420;28;20257;-76
2023/12/12 10:43:06;;;;;;;3.00;1.90;;;;;;;;;;1738169;28;20195;-75
2023/12/12 10:44:05;;;;;;;2.67;2.05;;;;;;;;;;1739106;28;20583;-76
2023/12/12 10:45:00;;;;;;;2.30;1.70;;;;;;;;;;1738282;28;20215;-75
2023/12/12 10:45:53;;;;;;;3.28;2.60;;;;;;;;;;1738094;28;20230;-75
2023/12/12 10:46:44;;;;;;;4.28;2.90;;;;;;;;;;1739198;28;20199;-76
2023/12/12 10:47:38;;;;;;;3.50;3.10;;;;;;;;;;1736883;28;20282;-76
2023/12/12 10:48:30;;;;;;;3.88;2.75;;;;;;;;;;1738544;28;20191;-75
2023/12/12 10:49:21;;;;;;;5.28;4.03;;;;;;;;;;1737407;28;20577;-76
2023/12/12 10:50:13;;;;;;;3.25;2.95;;;;;;;;;;1740406;28;20202;-76
2023/12/12 10:51:06;;;;;;;7.05;6.07;;;;;;;;;;1736807;28;20195;-76
2023/12/12 10:51:58;;;;;;;2.80;2.60;;;;;;;;;;1739757;28;20253;-76
2023/12/12 10:52:49;;;;;;;3.63;2.05;;;;;;;;;;1738209;28;20200;-76
2023/12/12 10:53:43;;;;;;;4.20;2.90;;;;;;;;;;1738222;28;20199;-76
2023/12/12 10:54:35;;;;;;;2.63;2.15;;;;;;;;;;1738156;28;20196;-76
2023/12/12 10:55:26;;;;;;;3.63;2.50;;;;;;;;;;1738490;28;20191;-76
2023/12/12 10:56:19;;;;;;;2.47;1.90;;;;;;;;;;1738124;28;20196;-76
2023/12/12 10:57:11;;;;;;;1.98;1.88;;;;;;;;;;1736965;28;20191;-76
2023/12/12 10:58:04;;;;;;;3.20;2.10;;;;;;;;;;1739584;28;20199;-76
2023/12/12 10:58:56;;;;;;;2.20;2.00;;;;;;;;;;1736884;28;20717;-76
2023/12/12 10:59:47;;;;;;;2.85;1.80;;;;;;;;;;1740893;28;20207;-76
2023/12/12 11:00:40;;;;;;;2.63;2.42;;;;;;;;;;1739221;28;20191;-76
2023/12/12 11:01:31;;;;;;;4.30;2.95;;;;;;;;;;1740866;28;20207;-75
2023/12/12 11:02:25;;;;;;;4.20;2.88;;;;;;;;;;1736811;28;20221;-75
2023/12/12 11:03:17;;;;;;;4.85;2.55;;;;;;;;;;1739783;28;20655;-76
2023/12/12 11:04:08;;;;;;;3.75;2.92;;;;;;;;;;1738039;28;20194;-76
2023/12/12 11:05:01;;;;;;;6.10;5.50;;;;;;;;;;1738047;28;20237;-76
2023/12/12 11:05:52;;;;;;;6.80;4.80;;;;;;;;;;1740984;28;20199;-76
2023/12/12 11:06:45;;;;;;;5.22;3.65;;;;;;;;;;1737643;28;20282;-76
2023/12/12 11:07:36;;;;;;;2.95;2.30;;;;;;;;;;1740204;28;20564;-75
2023/12/12 11:08:28;;;;;;;3.58;2.88;;;;;;;;;;1736651;28;20191;-76
2023/12/12 11:09:20;;;;;;;3.47;2.90;;;;;;;;;;1739994;28;20210;-75
2023/12/12 11:10:13;;;;;;;3.35;2.80;;;;;;;;;;1736729;28;20686;-76
2023/12/12 11:11:07;;;;;;;3.35;2.60;;;;;;;;;;1740853;28;20655;-76
2023/12/12 11:11:59;;;;;;;4.57;4.10;;;;;;;;;;1736643;28;20188;-76